sensor_id;sensor_type;location;lat;lon;timestamp;pressure;altitude;pressure_sealevel;temperature;humidity
39105;BME280;46464;51.154;13.812;2022-12-17T00:02:08;99662.56;;;-5.22;100.00
39105;BME280;46464;51.154;13.812;2022-12-17T00:04:53;99666.88;;;-5.24;100.00
39105;BME280;46464;51.154;13.812;2022-12-17T00:07:38;99671.25;;;-5.23;100.00
39105;BME280;46464;51.154;13.812;2022-12-17T00:10:23;99665.06;;;-5.26;100.00
39105;BME280;46464;51.154;13.812;2022-12-17T00:13:19;99666.81;;;-5.28;100.00
39105;BME280;46464;51.154;13.812;2022-12-17T00:16:05;99671.41;;;-5.15;100.00
39105;BME280;46464;51.154;13.812;2022-12-17T00:18:50;99670.56;;;-5.15;100.00
39105;BME280;46464;51.154;13.812;2022-12-17T00:21:36;99675.69;;;-5.20;100.00
39105;BME280;46464;51.154;13.812;2022-12-17T00:24:21;99678.50;;;-5.11;100.00
39105;BME280;46464;51.154;13.812;2022-12-17T00:27:07;99670.66;;;-5.11;100.00
39105;BME280;46464;51.154;13.812;2022-12-17T00:29:52;99676.59;;;-5.20;100.00
39105;BME280;46464;51.154;13.812;2022-12-17T00:32:37;99679.34;;;-5.13;100.00
39105;BME280;46464;51.154;13.812;2022-12-17T00:35:22;99684.53;;;-5.15;100.00
39105;BME280;46464;51.154;13.812;2022-12-17T00:38:13;99680.09;;;-5.18;100.00
39105;BME280;46464;51.154;13.812;2022-12-17T00:40:59;99691.56;;;-5.12;100.00
39105;BME280;46464;51.154;13.812;2022-12-17T00:43:44;99695.19;;;-5.07;100.00
39105;BME280;46464;51.154;13.812;2022-12-17T00:46:29;99694.34;;;-5.05;100.00
39105;BME280;46464;51.154;13.812;2022-12-17T00:49:14;99701.25;;;-5.08;100.00
39105;BME280;46464;51.154;13.812;2022-12-17T00:51:59;99694.28;;;-5.08;100.00
39105;BME280;46464;51.154;13.812;2022-12-17T00:54:44;99704.66;;;-5.12;100.00
39105;BME280;46464;51.154;13.812;2022-12-17T00:57:29;99712.63;;;-5.06;100.00
39105;BME280;46464;51.154;13.812;2022-12-17T01:00:14;99715.13;;;-5.12;100.00
39105;BME280;46464;51.154;13.812;2022-12-17T01:03:07;99707.22;;;-5.15;100.00
39105;BME280;46464;51.154;13.812;2022-12-17T01:05:53;99712.50;;;-5.12;100.00
39105;BME280;46464;51.154;13.812;2022-12-17T01:08:38;99721.44;;;-5.03;100.00
39105;BME280;46464;51.154;13.812;2022-12-17T01:11:23;99727.53;;;-5.04;100.00
39105;BME280;46464;51.154;13.812;2022-12-17T01:14:08;99732.78;;;-5.04;100.00
39105;BME280;46464;51.154;13.812;2022-12-17T01:16:53;99723.09;;;-5.08;100.00
39105;BME280;46464;51.154;13.812;2022-12-17T01:19:38;99732.50;;;-5.16;100.00
39105;BME280;46464;51.154;13.812;2022-12-17T01:22:23;99735.22;;;-5.13;100.00
39105;BME280;46464;51.154;13.812;2022-12-17T01:25:08;99742.25;;;-5.10;100.00
39105;BME280;46464;51.154;13.812;2022-12-17T01:27:53;99744.88;;;-5.10;100.00
39105;BME280;46464;51.154;13.812;2022-12-17T01:30:38;99748.59;;;-4.99;100.00
39105;BME280;46464;51.154;13.812;2022-12-17T01:33:23;99750.09;;;-5.12;100.00
39105;BME280;46464;51.154;13.812;2022-12-17T01:36:08;99752.75;;;-5.09;100.00
39105;BME280;46464;51.154;13.812;2022-12-17T01:38:53;99757.97;;;-5.10;100.00
39105;BME280;46464;51.154;13.812;2022-12-17T01:41:38;99754.41;;;-5.12;100.00
39105;BME280;46464;51.154;13.812;2022-12-17T01:44:53;99750.94;;;-5.13;100.00
39105;BME280;46464;51.154;13.812;2022-12-17T01:47:50;99753.56;;;-5.11;100.00
39105;BME280;46464;51.154;13.812;2022-12-17T01:50:48;99747.47;;;-5.12;100.00
39105;BME280;46464;51.154;13.812;2022-12-17T01:53:37;99750.09;;;-5.12;100.00
39105;BME280;46464;51.154;13.812;2022-12-17T01:56:24;99754.47;;;-5.11;100.00
39105;BME280;46464;51.154;13.812;2022-12-17T01:59:11;99756.06;;;-5.18;100.00
39105;BME280;46464;51.154;13.812;2022-12-17T02:01:56;99760.53;;;-5.13;100.00
39105;BME280;46464;51.154;13.812;2022-12-17T02:04:42;99763.22;;;-5.10;100.00
39105;BME280;46464;51.154;13.812;2022-12-17T02:14:02;99766.81;;;-5.05;100.00
39105;BME280;46464;51.154;13.812;2022-12-17T02:17:15;99770.34;;;-5.05;100.00
39105;BME280;46464;51.154;13.812;2022-12-17T02:20:12;99768.66;;;-5.01;100.00
39105;BME280;46464;51.154;13.812;2022-12-17T02:23:24;99781.75;;;-5.01;100.00
39105;BME280;46464;51.154;13.812;2022-12-17T02:29:26;99775.66;;;-5.00;100.00
39105;BME280;46464;51.154;13.812;2022-12-17T02:32:13;99770.34;;;-5.03;100.00
39105;BME280;46464;51.154;13.812;2022-12-17T02:35:06;99770.47;;;-4.98;100.00
39105;BME280;46464;51.154;13.812;2022-12-17T02:37:54;99761.59;;;-5.04;100.00
39105;BME280;46464;51.154;13.812;2022-12-17T02:40:40;99773.81;;;-5.04;100.00
39105;BME280;46464;51.154;13.812;2022-12-17T02:43:27;99782.66;;;-4.99;100.00
39105;BME280;46464;51.154;13.812;2022-12-17T02:46:13;99780.81;;;-5.05;100.00
39105;BME280;46464;51.154;13.812;2022-12-17T02:48:58;99779.75;;;-5.13;100.00
39105;BME280;46464;51.154;13.812;2022-12-17T02:51:43;99785.16;;;-5.05;100.00
39105;BME280;46464;51.154;13.812;2022-12-17T02:54:30;99783.28;;;-5.11;100.00
39105;BME280;46464;51.154;13.812;2022-12-17T02:57:16;99786.75;;;-5.12;100.00
39105;BME280;46464;51.154;13.812;2022-12-17T03:00:04;99791.03;;;-5.15;100.00
39105;BME280;46464;51.154;13.812;2022-12-17T03:02:49;99794.47;;;-5.18;100.00
39105;BME280;46464;51.154;13.812;2022-12-17T03:05:35;99787.50;;;-5.16;100.00
39105;BME280;46464;51.154;13.812;2022-12-17T03:08:20;99787.59;;;-5.13;100.00
39105;BME280;46464;51.154;13.812;2022-12-17T03:11:05;99798.91;;;-5.15;100.00
39105;BME280;46464;51.154;13.812;2022-12-17T03:13:50;99802.38;;;-5.15;100.00
39105;BME280;46464;51.154;13.812;2022-12-17T03:16:35;99802.47;;;-5.12;100.00
39105;BME280;46464;51.154;13.812;2022-12-17T03:19:20;99799.84;;;-5.12;100.00
39105;BME280;46464;51.154;13.812;2022-12-17T03:22:05;99806.94;;;-5.06;100.00
39105;BME280;46464;51.154;13.812;2022-12-17T03:24:50;99805.38;;;-4.99;100.00
39105;BME280;46464;51.154;13.812;2022-12-17T03:27:35;99801.84;;;-5.00;100.00
39105;BME280;46464;51.154;13.812;2022-12-17T03:30:20;99804.47;;;-5.00;100.00
39105;BME280;46464;51.154;13.812;2022-12-17T03:33:09;99820.31;;;-4.95;100.00
39105;BME280;46464;51.154;13.812;2022-12-17T03:35:54;99809.78;;;-4.97;100.00
39105;BME280;46464;51.154;13.812;2022-12-17T03:38:39;99816.69;;;-5.00;100.00
39105;BME280;46464;51.154;13.812;2022-12-17T03:41:24;99813.09;;;-5.06;100.00
39105;BME280;46464;51.154;13.812;2022-12-17T03:44:09;99815.69;;;-5.07;100.00
39105;BME280;46464;51.154;13.812;2022-12-17T03:46:54;99813.13;;;-5.04;100.00
39105;BME280;46464;51.154;13.812;2022-12-17T03:49:39;99815.06;;;-4.95;100.00
39105;BME280;46464;51.154;13.812;2022-12-17T03:52:24;99820.41;;;-4.91;100.00
39105;BME280;46464;51.154;13.812;2022-12-17T03:55:09;99816.97;;;-4.88;100.00
39105;BME280;46464;51.154;13.812;2022-12-17T03:57:53;99818.63;;;-4.93;100.00
39105;BME280;46464;51.154;13.812;2022-12-17T04:00:39;99821.91;;;-5.02;100.00
39105;BME280;46464;51.154;13.812;2022-12-17T04:03:28;99829.94;;;-4.94;100.00
39105;BME280;46464;51.154;13.812;2022-12-17T04:06:14;99829.09;;;-4.93;100.00
39105;BME280;46464;51.154;13.812;2022-12-17T04:08:59;99829.22;;;-4.89;100.00
39105;BME280;46464;51.154;13.812;2022-12-17T04:11:44;99828.25;;;-4.92;100.00
39105;BME280;46464;51.154;13.812;2022-12-17T04:14:29;99831.59;;;-4.98;100.00
39105;BME280;46464;51.154;13.812;2022-12-17T04:17:28;99828.88;;;-5.03;100.00
39105;BME280;46464;51.154;13.812;2022-12-17T04:20:13;99832.47;;;-4.97;100.00
39105;BME280;46464;51.154;13.812;2022-12-17T04:22:58;99846.47;;;-4.97;100.00
39105;BME280;46464;51.154;13.812;2022-12-17T04:25:43;99851.84;;;-4.92;100.00
39105;BME280;46464;51.154;13.812;2022-12-17T04:28:28;99854.38;;;-4.94;100.00
39105;BME280;46464;51.154;13.812;2022-12-17T04:31:13;99871.13;;;-4.89;100.00
39105;BME280;46464;51.154;13.812;2022-12-17T04:33:58;99868.44;;;-4.90;100.00
39105;BME280;46464;51.154;13.812;2022-12-17T04:36:43;99870.09;;;-4.95;100.00
39105;BME280;46464;51.154;13.812;2022-12-17T04:39:28;99869.38;;;-4.88;100.00
39105;BME280;46464;51.154;13.812;2022-12-17T04:42:13;99866.66;;;-4.93;100.00
39105;BME280;46464;51.154;13.812;2022-12-17T04:44:58;99866.69;;;-4.91;100.00
39105;BME280;46464;51.154;13.812;2022-12-17T04:47:43;99873.94;;;-4.81;100.00
39105;BME280;46464;51.154;13.812;2022-12-17T04:50:28;99868.59;;;-4.84;100.00
39105;BME280;46464;51.154;13.812;2022-12-17T04:53:13;99870.25;;;-4.88;100.00
39105;BME280;46464;51.154;13.812;2022-12-17T04:55:59;99873.75;;;-4.89;100.00
39105;BME280;46464;51.154;13.812;2022-12-17T04:58:45;99865.91;;;-4.89;100.00
39105;BME280;46464;51.154;13.812;2022-12-17T05:01:30;99880.69;;;-4.91;100.00
39105;BME280;46464;51.154;13.812;2022-12-17T05:04:15;99885.16;;;-4.85;100.00
39105;BME280;46464;51.154;13.812;2022-12-17T05:07:00;99882.53;;;-4.85;100.00
39105;BME280;46464;51.154;13.812;2022-12-17T05:09:46;99890.50;;;-4.82;100.00
39105;BME280;46464;51.154;13.812;2022-12-17T05:12:30;99893.13;;;-4.82;100.00
39105;BME280;46464;51.154;13.812;2022-12-17T05:15:15;99893.09;;;-4.83;100.00
39105;BME280;46464;51.154;13.812;2022-12-17T05:18:07;99899.19;;;-4.83;100.00
39105;BME280;46464;51.154;13.812;2022-12-17T05:20:52;99896.66;;;-4.80;100.00
39105;BME280;46464;51.154;13.812;2022-12-17T05:23:37;99898.47;;;-4.77;100.00
39105;BME280;46464;51.154;13.812;2022-12-17T05:26:25;99909.94;;;-4.72;100.00
39105;BME280;46464;51.154;13.812;2022-12-17T05:29:10;99912.56;;;-4.72;100.00
39105;BME280;46464;51.154;13.812;2022-12-17T05:31:56;99915.06;;;-4.77;100.00
39105;BME280;46464;51.154;13.812;2022-12-17T05:34:42;99919.63;;;-4.68;100.00
39105;BME280;46464;51.154;13.812;2022-12-17T05:37:29;99925.72;;;-4.69;100.00
39105;BME280;46464;51.154;13.812;2022-12-17T05:40:14;99925.63;;;-4.74;100.00
39105;BME280;46464;51.154;13.812;2022-12-17T05:43:03;99934.53;;;-4.67;100.00
39105;BME280;46464;51.154;13.812;2022-12-17T05:45:49;99931.88;;;-4.68;100.00
39105;BME280;46464;51.154;13.812;2022-12-17T05:48:35;99935.41;;;-4.66;100.00
39105;BME280;46464;51.154;13.812;2022-12-17T05:51:21;99936.88;;;-4.78;100.00
39105;BME280;46464;51.154;13.812;2022-12-17T05:54:13;99941.22;;;-4.80;100.00
39105;BME280;46464;51.154;13.812;2022-12-17T05:56:58;99944.00;;;-4.74;100.00
39105;BME280;46464;51.154;13.812;2022-12-17T05:59:44;99946.63;;;-4.74;100.00
39105;BME280;46464;51.154;13.812;2022-12-17T06:02:29;99941.41;;;-4.72;100.00
39105;BME280;46464;51.154;13.812;2022-12-17T06:05:14;99946.69;;;-4.69;100.00
39105;BME280;46464;51.154;13.812;2022-12-17T06:08:04;99958.28;;;-4.59;100.00
39105;BME280;46464;51.154;13.812;2022-12-17T06:10:50;99956.59;;;-4.57;100.00
39105;BME280;46464;51.154;13.812;2022-12-17T06:13:35;99959.94;;;-4.63;100.00
39105;BME280;46464;51.154;13.812;2022-12-17T06:16:20;99960.72;;;-4.68;100.00
39105;BME280;46464;51.154;13.812;2022-12-17T06:19:06;99959.78;;;-4.71;100.00
39105;BME280;46464;51.154;13.812;2022-12-17T06:21:51;99957.31;;;-4.63;100.00
39105;BME280;46464;51.154;13.812;2022-12-17T06:24:35;99956.50;;;-4.60;100.00
39105;BME280;46464;51.154;13.812;2022-12-17T06:27:21;99964.38;;;-4.60;100.00
39105;BME280;46464;51.154;13.812;2022-12-17T06:30:06;99966.16;;;-4.59;100.00
39105;BME280;46464;51.154;13.812;2022-12-17T06:32:51;99966.28;;;-4.53;100.00
39105;BME280;46464;51.154;13.812;2022-12-17T06:35:36;99972.59;;;-4.46;100.00
39105;BME280;46464;51.154;13.812;2022-12-17T06:38:21;99973.59;;;-4.40;100.00
39105;BME280;46464;51.154;13.812;2022-12-17T06:41:06;99978.88;;;-4.38;100.00
39105;BME280;46464;51.154;13.812;2022-12-17T06:43:50;99992.78;;;-4.42;100.00
39105;BME280;46464;51.154;13.812;2022-12-17T06:46:36;99990.75;;;-4.54;100.00
39105;BME280;46464;51.154;13.812;2022-12-17T06:49:21;99996.03;;;-4.52;100.00
39105;BME280;46464;51.154;13.812;2022-12-17T06:52:06;99999.41;;;-4.58;100.00
39105;BME280;46464;51.154;13.812;2022-12-17T06:54:51;100003.94;;;-4.51;100.00
39105;BME280;46464;51.154;13.812;2022-12-17T06:57:36;100005.56;;;-4.56;100.00
39105;BME280;46464;51.154;13.812;2022-12-17T07:00:22;100010.81;;;-4.56;100.00
39105;BME280;46464;51.154;13.812;2022-12-17T07:03:10;100014.31;;;-4.56;100.00
39105;BME280;46464;51.154;13.812;2022-12-17T07:05:59;100018.78;;;-4.51;100.00
39105;BME280;46464;51.154;13.812;2022-12-17T07:08:45;100024.81;;;-4.54;100.00
39105;BME280;46464;51.154;13.812;2022-12-17T07:11:30;100025.78;;;-4.50;100.00
39105;BME280;46464;51.154;13.812;2022-12-17T07:14:15;100030.88;;;-4.57;100.00
39105;BME280;46464;51.154;13.812;2022-12-17T07:17:00;100038.16;;;-4.46;100.00
39105;BME280;46464;51.154;13.812;2022-12-17T07:19:45;100032.09;;;-4.44;100.00
39105;BME280;46464;51.154;13.812;2022-12-17T07:22:30;100040.56;;;-4.54;100.00
39105;BME280;46464;51.154;13.812;2022-12-17T07:25:15;100036.34;;;-4.49;100.00
39105;BME280;46464;51.154;13.812;2022-12-17T07:28:00;100038.19;;;-4.45;100.00
39105;BME280;46464;51.154;13.812;2022-12-17T07:30:45;100043.41;;;-4.46;100.00
39105;BME280;46464;51.154;13.812;2022-12-17T07:33:30;100048.78;;;-4.40;100.00
39105;BME280;46464;51.154;13.812;2022-12-17T07:36:15;100054.03;;;-4.40;100.00
39105;BME280;46464;51.154;13.812;2022-12-17T07:39:00;100056.00;;;-4.31;100.00
39105;BME280;46464;51.154;13.812;2022-12-17T07:41:45;100062.94;;;-4.33;100.00
39105;BME280;46464;51.154;13.812;2022-12-17T07:44:30;100057.69;;;-4.33;100.00
39105;BME280;46464;51.154;13.812;2022-12-17T07:47:15;100056.94;;;-4.28;100.00
39105;BME280;46464;51.154;13.812;2022-12-17T07:50:01;100064.72;;;-4.31;100.00
39105;BME280;46464;51.154;13.812;2022-12-17T07:52:46;100068.25;;;-4.30;100.00
39105;BME280;46464;51.154;13.812;2022-12-17T07:55:31;100074.50;;;-4.25;100.00
39105;BME280;46464;51.154;13.812;2022-12-17T07:58:16;100080.56;;;-4.28;100.00
39105;BME280;46464;51.154;13.812;2022-12-17T08:01:01;100080.66;;;-4.23;100.00
39105;BME280;46464;51.154;13.812;2022-12-17T08:03:47;100090.38;;;-4.19;100.00
39105;BME280;46464;51.154;13.812;2022-12-17T08:06:32;100086.03;;;-4.17;100.00
39105;BME280;46464;51.154;13.812;2022-12-17T08:09:25;100092.25;;;-4.13;100.00
39105;BME280;46464;51.154;13.812;2022-12-17T08:12:10;100092.31;;;-4.12;100.00
39105;BME280;46464;51.154;13.812;2022-12-17T08:14:55;100101.88;;;-4.14;100.00
39105;BME280;46464;51.154;13.812;2022-12-17T08:17:40;100098.34;;;-4.14;100.00
39105;BME280;46464;51.154;13.812;2022-12-17T08:20:25;100109.91;;;-4.06;100.00
39105;BME280;46464;51.154;13.812;2022-12-17T08:23:10;100107.31;;;-4.05;100.00
39105;BME280;46464;51.154;13.812;2022-12-17T08:25:55;100112.66;;;-4.01;100.00
39105;BME280;46464;51.154;13.812;2022-12-17T08:28:40;100117.06;;;-4.00;100.00
39105;BME280;46464;51.154;13.812;2022-12-17T08:31:25;100123.31;;;-3.95;100.00
39105;BME280;46464;51.154;13.812;2022-12-17T08:34:10;100123.22;;;-3.98;100.00
39105;BME280;46464;51.154;13.812;2022-12-17T08:36:55;100126.81;;;-3.93;100.00
39105;BME280;46464;51.154;13.812;2022-12-17T08:39:40;100129.50;;;-3.92;100.00
39105;BME280;46464;51.154;13.812;2022-12-17T08:42:25;100132.72;;;-4.03;100.00
39105;BME280;46464;51.154;13.812;2022-12-17T08:45:10;100139.09;;;-3.92;100.00
39105;BME280;46464;51.154;13.812;2022-12-17T08:48:09;100140.00;;;-3.92;100.00
39105;BME280;46464;51.154;13.812;2022-12-17T08:51:04;100137.34;;;-3.93;100.00
39105;BME280;46464;51.154;13.812;2022-12-17T08:53:49;100141.69;;;-3.94;100.00
39105;BME280;46464;51.154;13.812;2022-12-17T08:56:34;100147.91;;;-3.90;100.00
39105;BME280;46464;51.154;13.812;2022-12-17T08:59:19;100152.34;;;-3.87;100.00
39105;BME280;46464;51.154;13.812;2022-12-17T09:02:04;100160.16;;;-3.91;100.00
39105;BME280;46464;51.154;13.812;2022-12-17T09:04:49;100158.28;;;-3.95;100.00
39105;BME280;46464;51.154;13.812;2022-12-17T09:07:37;100159.25;;;-3.91;100.00
39105;BME280;46464;51.154;13.812;2022-12-17T09:10:22;100151.47;;;-3.88;100.00
39105;BME280;46464;51.154;13.812;2022-12-17T09:13:07;100158.38;;;-3.92;100.00
39105;BME280;46464;51.154;13.812;2022-12-17T09:15:53;100151.75;;;-3.76;100.00
39105;BME280;46464;51.154;13.812;2022-12-17T09:18:39;100153.50;;;-3.75;100.00
39105;BME280;46464;51.154;13.812;2022-12-17T09:21:26;100153.47;;;-3.78;100.00
39105;BME280;46464;51.154;13.812;2022-12-17T09:24:12;100154.47;;;-3.71;100.00
39105;BME280;46464;51.154;13.812;2022-12-17T09:26:57;100159.84;;;-3.66;100.00
39105;BME280;46464;51.154;13.812;2022-12-17T09:29:42;100162.50;;;-3.65;100.00
39105;BME280;46464;51.154;13.812;2022-12-17T09:32:29;100158.31;;;-3.57;100.00
39105;BME280;46464;51.154;13.812;2022-12-17T09:35:14;100161.94;;;-3.50;100.00
39105;BME280;46464;51.154;13.812;2022-12-17T09:37:59;100166.97;;;-3.61;100.00
39105;BME280;46464;51.154;13.812;2022-12-17T09:40:48;100172.31;;;-3.56;100.00
39105;BME280;46464;51.154;13.812;2022-12-17T09:46:53;100165.63;;;-3.43;100.00
39105;BME280;46464;51.154;13.812;2022-12-17T09:49:43;100182.97;;;-3.50;100.00
39105;BME280;46464;51.154;13.812;2022-12-17T09:52:32;100188.44;;;-3.41;100.00
39105;BME280;46464;51.154;13.812;2022-12-17T09:58:05;100174.72;;;-3.27;100.00
39105;BME280;46464;51.154;13.812;2022-12-17T10:00:58;100178.91;;;-3.35;100.00
39105;BME280;46464;51.154;13.812;2022-12-17T10:03:44;100180.66;;;-3.36;100.00
39105;BME280;46464;51.154;13.812;2022-12-17T10:06:31;100180.81;;;-3.30;100.00
39105;BME280;46464;51.154;13.812;2022-12-17T10:09:17;100190.28;;;-3.36;100.00
39105;BME280;46464;51.154;13.812;2022-12-17T10:12:17;100192.72;;;-3.44;100.00
39105;BME280;46464;51.154;13.812;2022-12-17T10:15:04;100196.19;;;-3.47;100.00
39105;BME280;46464;51.154;13.812;2022-12-17T10:17:51;100196.44;;;-3.36;100.00
39105;BME280;46464;51.154;13.812;2022-12-17T10:20:47;100199.91;;;-3.37;100.00
39105;BME280;46464;51.154;13.812;2022-12-17T10:23:35;100198.25;;;-3.32;100.00
39105;BME280;46464;51.154;13.812;2022-12-17T10:26:28;100206.94;;;-3.36;100.00
39105;BME280;46464;51.154;13.812;2022-12-17T10:34:59;100210.94;;;-3.52;100.00
39105;BME280;46464;51.154;13.812;2022-12-17T10:37:45;100215.44;;;-3.46;100.00
39105;BME280;46464;51.154;13.812;2022-12-17T10:40:31;100221.59;;;-3.46;100.00
39105;BME280;46464;51.154;13.812;2022-12-17T10:43:30;100225.28;;;-3.37;100.00
39105;BME280;46464;51.154;13.812;2022-12-17T10:46:35;100228.09;;;-3.30;100.00
39105;BME280;46464;51.154;13.812;2022-12-17T10:49:23;100231.56;;;-3.32;100.00
39105;BME280;46464;51.154;13.812;2022-12-17T10:52:34;100226.03;;;-3.43;100.00
39105;BME280;46464;51.154;13.812;2022-12-17T10:55:24;100222.72;;;-3.36;100.00
39105;BME280;46464;51.154;13.812;2022-12-17T10:58:21;100228.84;;;-3.35;100.00
39105;BME280;46464;51.154;13.812;2022-12-17T11:01:17;100227.81;;;-3.42;100.00
39105;BME280;46464;51.154;13.812;2022-12-17T11:04:27;100226.03;;;-3.43;100.00
39105;BME280;46464;51.154;13.812;2022-12-17T11:07:23;100232.13;;;-3.44;100.00
39105;BME280;46464;51.154;13.812;2022-12-17T11:10:19;100220.94;;;-3.35;100.00
39105;BME280;46464;51.154;13.812;2022-12-17T11:13:12;100229.63;;;-3.39;100.00
39105;BME280;46464;51.154;13.812;2022-12-17T11:16:01;100228.00;;;-3.33;100.00
39105;BME280;46464;51.154;13.812;2022-12-17T11:18:49;100233.44;;;-3.25;100.00
39105;BME280;46464;51.154;13.812;2022-12-17T11:21:42;100228.13;;;-3.28;100.00
39105;BME280;46464;51.154;13.812;2022-12-17T11:24:51;100236.84;;;-3.31;100.00
39105;BME280;46464;51.154;13.812;2022-12-17T11:27:48;100242.38;;;-3.17;100.00
39105;BME280;46464;51.154;13.812;2022-12-17T11:30:42;100240.84;;;-3.09;100.00
39105;BME280;46464;51.154;13.812;2022-12-17T11:33:42;100236.34;;;-3.13;100.00
39105;BME280;46464;51.154;13.812;2022-12-17T11:36:36;100241.56;;;-3.14;100.00
39105;BME280;46464;51.154;13.812;2022-12-17T11:39:34;100231.88;;;-3.17;100.00
39105;BME280;46464;51.154;13.812;2022-12-17T11:42:27;100245.25;;;-3.06;100.00
39105;BME280;46464;51.154;13.812;2022-12-17T11:48:15;100248.22;;;-2.90;100.00
39105;BME280;46464;51.154;13.812;2022-12-17T11:51:16;100250.72;;;-2.97;100.00
39105;BME280;46464;51.154;13.812;2022-12-17T11:54:11;100249.72;;;-3.02;100.00
39105;BME280;46464;51.154;13.812;2022-12-17T12:00:01;100260.06;;;-3.11;100.00
39105;BME280;46464;51.154;13.812;2022-12-17T12:02:58;100257.47;;;-3.08;100.00
39105;BME280;46464;51.154;13.812;2022-12-17T12:05:52;100257.44;;;-3.11;100.00
39105;BME280;46464;51.154;13.812;2022-12-17T12:09:14;100266.34;;;-3.03;100.00
39105;BME280;46464;51.154;13.812;2022-12-17T12:15:16;100263.78;;;-3.01;100.00
39105;BME280;46464;51.154;13.812;2022-12-17T12:21:39;100270.66;;;-3.06;100.00
39105;BME280;46464;51.154;13.812;2022-12-17T12:30:23;100271.72;;;-2.98;100.00
39105;BME280;46464;51.154;13.812;2022-12-17T12:33:25;100280.53;;;-2.96;100.00
39105;BME280;46464;51.154;13.812;2022-12-17T12:36:17;100286.88;;;-2.86;100.00
39105;BME280;46464;51.154;13.812;2022-12-17T12:39:05;100287.75;;;-2.86;100.00
39105;BME280;46464;51.154;13.812;2022-12-17T12:42:20;100285.84;;;-2.93;100.00
39105;BME280;46464;51.154;13.812;2022-12-17T12:45:15;100288.50;;;-2.92;100.00
39105;BME280;46464;51.154;13.812;2022-12-17T12:51:27;100297.34;;;-2.88;100.00
39105;BME280;46464;51.154;13.812;2022-12-17T12:57:33;100290.28;;;-2.90;100.00
39105;BME280;46464;51.154;13.812;2022-12-17T13:06:39;100301.44;;;-3.02;100.00
39105;BME280;46464;51.154;13.812;2022-12-17T13:11:56;100303.97;;;-3.05;100.00
39105;BME280;46464;51.154;13.812;2022-12-17T13:19:46;100306.63;;;-3.04;100.00
39105;BME280;46464;51.154;13.812;2022-12-17T13:22:27;100305.84;;;-3.01;100.00
39105;BME280;46464;51.154;13.812;2022-12-17T13:25:13;100311.88;;;-3.04;100.00
39105;BME280;46464;51.154;13.812;2022-12-17T13:27:41;100311.00;;;-3.04;100.00
39105;BME280;46464;51.154;13.812;2022-12-17T13:39:02;100326.94;;;-2.97;100.00
39105;BME280;46464;51.154;13.812;2022-12-17T13:41:32;100330.34;;;-3.02;100.00
39105;BME280;46464;51.154;13.812;2022-12-17T13:44:17;100335.19;;;-3.19;100.00
39105;BME280;46464;51.154;13.812;2022-12-17T13:46:47;100341.31;;;-3.19;100.00
39105;BME280;46464;51.154;13.812;2022-12-17T13:49:25;100341.31;;;-3.19;100.00
39105;BME280;46464;51.154;13.812;2022-12-17T13:54:40;100343.34;;;-3.09;100.00
39105;BME280;46464;51.154;13.812;2022-12-17T13:57:20;100351.13;;;-3.12;100.00
39105;BME280;46464;51.154;13.812;2022-12-17T13:59:54;100352.78;;;-3.17;100.00
39105;BME280;46464;51.154;13.812;2022-12-17T14:02:29;100345.81;;;-3.15;100.00
39105;BME280;46464;51.154;13.812;2022-12-17T14:04:59;100354.69;;;-3.10;100.00
39105;BME280;46464;51.154;13.812;2022-12-17T14:07:34;100358.00;;;-3.18;100.00
39105;BME280;46464;51.154;13.812;2022-12-17T14:10:04;100357.72;;;-3.29;100.00
39105;BME280;46464;51.154;13.812;2022-12-17T14:12:31;100374.19;;;-3.36;100.00
39105;BME280;46464;51.154;13.812;2022-12-17T14:15:10;100378.69;;;-3.32;100.00
39105;BME280;46464;51.154;13.812;2022-12-17T14:17:46;100377.66;;;-3.37;100.00
39105;BME280;46464;51.154;13.812;2022-12-17T14:20:17;100372.47;;;-3.36;100.00
39105;BME280;46464;51.154;13.812;2022-12-17T14:23:03;100388.94;;;-3.42;100.00
39105;BME280;46464;51.154;13.812;2022-12-17T14:25:34;100385.47;;;-3.41;100.00
39105;BME280;46464;51.154;13.812;2022-12-17T14:28:50;100400.38;;;-3.41;100.00
39105;BME280;46464;51.154;13.812;2022-12-17T14:30:51;100400.53;;;-3.35;100.00
39105;BME280;46464;51.154;13.812;2022-12-17T14:33:41;100401.44;;;-3.33;100.00
39105;BME280;46464;51.154;13.812;2022-12-17T14:41:18;100412.25;;;-3.55;100.00
39105;BME280;46464;51.154;13.812;2022-12-17T14:44:04;100417.38;;;-3.59;100.00
39105;BME280;46464;51.154;13.812;2022-12-17T14:46:32;100415.56;;;-3.61;100.00
39105;BME280;46464;51.154;13.812;2022-12-17T14:49:02;100413.78;;;-3.62;100.00
39105;BME280;46464;51.154;13.812;2022-12-17T14:51:35;100419.22;;;-3.56;100.00
39105;BME280;46464;51.154;13.812;2022-12-17T14:54:28;100421.78;;;-3.59;100.00
39105;BME280;46464;51.154;13.812;2022-12-17T14:56:57;100427.69;;;-3.66;100.00
39105;BME280;46464;51.154;13.812;2022-12-17T15:01:52;100430.09;;;-3.76;100.00
39105;BME280;46464;51.154;13.812;2022-12-17T15:04:22;100421.47;;;-3.70;100.00
39105;BME280;46464;51.154;13.812;2022-12-17T15:06:48;100436.38;;;-3.69;100.00
39105;BME280;46464;51.154;13.812;2022-12-17T15:09:15;100433.03;;;-3.63;100.00
39105;BME280;46464;51.154;13.812;2022-12-17T15:11:42;100435.72;;;-3.62;100.00
39105;BME280;46464;51.154;13.812;2022-12-17T15:14:09;100440.94;;;-3.63;100.00
39105;BME280;46464;51.154;13.812;2022-12-17T15:16:35;100451.34;;;-3.66;100.00
39105;BME280;46464;51.154;13.812;2022-12-17T15:19:02;100446.69;;;-3.77;100.00
39105;BME280;46464;51.154;13.812;2022-12-17T15:21:29;100451.13;;;-3.74;100.00
39105;BME280;46464;51.154;13.812;2022-12-17T15:23:55;100445.09;;;-3.70;100.00
39105;BME280;46464;51.154;13.812;2022-12-17T15:26:22;100453.09;;;-3.67;100.00
39105;BME280;46464;51.154;13.812;2022-12-17T15:28:48;100451.50;;;-3.60;100.00
39105;BME280;46464;51.154;13.812;2022-12-17T15:31:15;100452.13;;;-3.69;100.00